Airport View

Enter AWOS ICAO identifier for current METAR.

ex. KFNL

KIKV 080815Z AUTO 00000KT 9SM CLR 09/07 A2975 RMK AO2

8 Apr 2020 08:16

Frequency: 119.175

Phone: 515-965-5764

Other Area AWOS: KDSM - KAMW - KTNU - KBNW

TAF KDSM 080535Z 0806/0906 VRB04KT P6SM SKC FM081600 32011G18KT P6SM VCSH SCT080 BKN150 FM081900 34017G27KT P6SM VCSH BKN070 OVC120 FM082300 32013G20KT P6SM SCT100 BKN150 FM090400 31010KT P6SM FEW200